createdAt,value
2019-04-03T00:00:05.618Z,950.56
2019-04-03T00:15:04.989Z,950.48
2019-04-03T00:30:05.003Z,950.34
2019-04-03T00:45:04.285Z,950.37
2019-04-03T01:00:04.534Z,950.15
2019-04-03T01:15:05.036Z,950.29
2019-04-03T01:30:04.508Z,950.89
2019-04-03T01:45:04.754Z,950.78
2019-04-03T02:00:08.405Z,950.62
2019-04-03T02:15:04.941Z,950.94
2019-04-03T02:30:05.293Z,950.97
2019-04-03T02:45:04.667Z,951
2019-04-03T03:00:05.204Z,950.94
2019-04-03T03:15:05.199Z,951
2019-04-03T03:31:04.731Z,951.05
2019-04-03T03:45:05.322Z,951.11
2019-04-03T04:00:04.721Z,951.13
2019-04-03T04:15:05.365Z,951.16
2019-04-03T04:30:05.100Z,951.21
2019-04-03T04:45:04.391Z,951.57
2019-04-03T05:00:05.372Z,951.7
2019-04-03T05:15:04.739Z,952.03
2019-04-03T05:30:07.168Z,952.03
2019-04-03T05:45:05.164Z,951.98
2019-04-03T06:00:07.722Z,951.7
2019-04-03T06:15:04.541Z,951.4
2019-04-03T06:30:10.178Z,951.13
2019-04-03T06:45:04.431Z,950.56
2019-04-03T07:00:04.430Z,949.64
2019-04-03T07:15:05.173Z,948.58
2019-04-03T07:30:05.122Z,947.46
2019-04-03T07:45:04.896Z,953.31
2019-04-03T08:00:07.756Z,950.37
2019-04-03T08:15:05.135Z,947.69
2019-04-03T08:30:08.994Z,951.68
2019-04-03T08:45:07.665Z,950.3
2019-04-03T09:00:04.437Z,948.56
2019-04-03T09:15:05.388Z,952.32
2019-04-03T09:30:05.214Z,949.22
2019-04-03T09:45:05.467Z,950.04
2019-04-03T10:00:04.258Z,949.77
2019-04-03T10:15:04.547Z,950.24
2019-04-03T10:30:05.400Z,949.91
2019-04-03T10:45:05.144Z,949.8
2019-04-03T11:00:15.513Z,949.52
2019-04-03T11:15:22.626Z,949.77
2019-04-03T11:30:04.269Z,949.14
2019-04-03T11:45:05.745Z,949
2019-04-03T12:00:16.682Z,948.51
2019-04-03T12:15:04.542Z,948.12
2019-04-03T12:30:04.532Z,947.71
2019-04-03T12:45:17.338Z,947.49
2019-04-03T13:00:05.313Z,947.27
2019-04-03T13:15:07.037Z,946.97
2019-04-03T13:45:15.550Z,947.63
2019-04-03T14:00:23.908Z,941.04
2019-04-03T14:15:05.754Z,941.64
2019-04-03T14:30:05.194Z,943.24
2019-04-03T14:45:04.875Z,945.45
2019-04-03T15:00:32.637Z,946.43
2019-04-03T15:15:04.755Z,947.95
2019-04-03T15:30:04.758Z,948.55
2019-04-03T15:45:09.674Z,948.93
2019-04-03T16:00:04.730Z,949.47
2019-04-03T16:15:05.407Z,949.55
2019-04-03T16:30:15.269Z,950.07
2019-04-03T16:45:24.555Z,950.18
2019-04-03T17:00:10.526Z,950.56
2019-04-03T17:15:10.629Z,950.4
2019-04-03T17:30:24.335Z,950.23
2019-04-03T17:45:04.595Z,950.34
2019-04-03T18:00:04.927Z,950.21
2019-04-03T18:15:04.423Z,950.45
2019-04-03T18:30:04.896Z,950.51
2019-04-03T18:45:04.770Z,950.89
2019-04-03T19:00:05.135Z,951
2019-04-03T19:15:04.900Z,951
2019-04-03T19:30:08.178Z,951.08
2019-04-03T19:45:04.989Z,951.24
2019-04-03T20:00:04.321Z,951.43
2019-04-03T20:15:09.809Z,951.51
2019-04-03T20:30:05.024Z,951.35
2019-04-03T20:45:04.784Z,951.51
2019-04-03T21:00:05.576Z,951.59
2019-04-03T21:15:14.325Z,951.76
2019-04-03T21:30:05.076Z,944.39
2019-04-03T21:45:14.572Z,944.5
2019-04-03T22:00:06.275Z,944.5
2019-04-03T22:15:05.123Z,944.66
2019-04-03T22:30:05.252Z,944.5
2019-04-03T22:45:05.059Z,944.6
2019-04-03T23:00:04.472Z,944.23
2019-04-03T23:15:04.326Z,944.2
2019-04-03T23:30:04.906Z,944.01
2019-04-03T23:45:04.722Z,943.55
